Gregory, Kentucky
Current Conditions -  °F | °C
As of 1:56 PM on Tuesday 21 Oct 2014 (Local Time) from KEKQ Reporting Station
Broken Clouds Broken Clouds  
Wind Chill: 64°   Ceiling: 4200
Heat Index: 64°   Visibility: 10mi
Dew Point: 45°   Wind: 8mph
Humidity: 50%   Direction: 360°N
Pressure: 30.06"   Gusts: NA
Location:  36.8129°N, 84.8215°W
Report Text: KEKQ 211756Z AUTO 36007KT 10SM BKN042 18/07 A3006 RMK AO2 5//// 6//// T01770072 SLP180
Loading
Personal Weather Stations






























Interactive Weather Map
Tropical Storm Tracking
New forecast layout! Learn more

10-Day Weather Forecast

Advertisements
Track Severe Weather on mobile